»·PEaware :: AAL234 KBIL-KBOI

AAL234 :: KBIL-KBOI

FLIGHT INFORMATION

Flight Status: Arrived
Operator:
American Airlines
More flights by this operator :: More flights under this callsign
Pilot: Peter H. (12565)
Aircraft: AIRBUS A320
(A320)
More flights by this aircraft type
Origin: KBIL Billings Logan Intl
United States
Destination: KBOI Boise Air Terminal/Gowen
United States
More flights between these airports :: More routes between these airports
Route: + BIL5 DLN BOI
File this flight plan on PilotEdge
Remarks:
Altitude:
(Current/Filed)
30,000ft
Speed:
(Current/Filed)
450kts
Departed: 29-Jul-18 05:03 PM
Arrived: 29-Jul-18 06:04 PM
Distance/Time
Traveled:
354nm/1:01
Distance/Time
To Go:
Arrived

Flight Plot

Page will automatically refresh every two minutes.

Flight plan parsing failed; only flown route is shown


Map Options




Map Legend


Flown Route
Filed Route
Departure Airport
Arrival Airport
Navaid (VOR, NDB)
Fix

Horizontal Profiles

Position Reports

Time Latitude Longitude Heading Altitude Ground
Speed
29-Jul-18 16:49 45.804445 -108.535577 266 3660ft 0kts
29-Jul-18 16:50 45.804445 -108.535577 266 3660ft 0kts
29-Jul-18 16:51 45.804445 -108.535577 266 3660ft 0kts
29-Jul-18 16:52 45.804445 -108.535577 266 3660ft 0kts
29-Jul-18 16:53 45.804445 -108.535577 266 3660ft 0kts
29-Jul-18 16:54 45.804445 -108.535577 266 3660ft 0kts
29-Jul-18 16:55 45.804445 -108.535577 266 3660ft 0kts
29-Jul-18 16:56 45.804445 -108.535577 266 3660ft 0kts
29-Jul-18 16:57 45.804445 -108.535577 266 3660ft 0kts
29-Jul-18 16:58 45.804444 -108.535585 266 3660ft 0kts
29-Jul-18 16:59 45.805128 -108.536057 5 3660ft 5kts
29-Jul-18 17:00 45.804766 -108.531433 91 3660ft 22kts
29-Jul-18 17:01 45.802839 -108.523478 118 3660ft 19kts
29-Jul-18 17:02 45.801242 -108.517928 94 3660ft 1kts
29-Jul-18 17:03 45.802496 -108.518110 286 3660ft 27kts
29-Jul-18 17:04 45.816147 -108.566760 289 4690ft 200kts
29-Jul-18 17:05 45.837464 -108.646560 288 7318ft 238kts
29-Jul-18 17:06 45.829278 -108.743702 261 9707ft 280kts
29-Jul-18 17:07 45.813020 -108.863383 261 11375ft 340kts
29-Jul-18 17:08 45.793410 -109.006488 261 12770ft 385kts
29-Jul-18 17:09 45.773701 -109.149053 261 14758ft 396kts
29-Jul-18 17:10 45.753301 -109.295754 261 16617ft 406kts
29-Jul-18 17:11 45.731246 -109.452887 261 18423ft 415kts
29-Jul-18 17:12 45.708312 -109.614581 262 20082ft 423kts
29-Jul-18 17:13 45.685291 -109.775179 261 21554ft 431kts
29-Jul-18 17:14 45.663916 -109.922798 261 22773ft 437kts
29-Jul-18 17:15 45.640059 -110.085904 261 24007ft 443kts
29-Jul-18 17:16 45.616937 -110.242367 261 25088ft 448kts
29-Jul-18 17:17 45.594019 -110.395930 262 26039ft 454kts
29-Jul-18 17:18 45.571293 -110.546723 262 26913ft 458kts
29-Jul-18 17:19 45.548654 -110.695524 261 27770ft 460kts
29-Jul-18 17:20 45.524530 -110.852479 261 28965ft 454kts
29-Jul-18 17:21 45.500545 -111.007099 262 30209ft 447kts
29-Jul-18 17:22 45.478550 -111.147653 262 30358ft 439kts
29-Jul-18 17:23 45.456586 -111.287007 262 30395ft 441kts
29-Jul-18 17:24 45.433657 -111.431072 262 30421ft 441kts
29-Jul-18 17:25 45.410124 -111.577622 262 30409ft 441kts
29-Jul-18 17:26 45.387776 -111.715633 262 30409ft 441kts
29-Jul-18 17:27 45.363156 -111.866358 262 30417ft 442kts
29-Jul-18 17:28 45.335618 -112.033367 262 30423ft 442kts
29-Jul-18 17:29 45.307947 -112.199561 262 30394ft 442kts
29-Jul-18 17:30 45.279788 -112.367060 262 30358ft 442kts
29-Jul-18 17:31 45.249873 -112.534616 255 30360ft 447kts
29-Jul-18 17:32 45.188838 -112.684662 243 30377ft 456kts
29-Jul-18 17:33 45.122552 -112.835235 243 30369ft 455kts
29-Jul-18 17:34 45.055892 -112.985974 244 30413ft 449kts
29-Jul-18 17:35 44.990588 -113.132882 245 30339ft 433kts
29-Jul-18 17:36 44.928588 -113.271785 245 29847ft 423kts
29-Jul-18 17:37 44.867774 -113.407507 245 29148ft 430kts
29-Jul-18 17:38 44.805399 -113.545876 245 28477ft 433kts
29-Jul-18 17:39 44.741854 -113.686168 244 26928ft 440kts
29-Jul-18 17:40 44.677004 -113.828584 243 25379ft 436kts
29-Jul-18 17:41 44.612626 -113.969316 243 24515ft 432kts
29-Jul-18 17:42 44.548123 -114.109651 243 24413ft 431kts
29-Jul-18 17:43 44.484554 -114.247284 243 24261ft 431kts
29-Jul-18 17:44 44.421540 -114.383050 243 24260ft 431kts
29-Jul-18 17:45 44.356705 -114.522072 243 24260ft 431kts
29-Jul-18 17:46 44.292493 -114.659108 242 24260ft 431kts
29-Jul-18 17:47 44.227610 -114.796911 243 24233ft 430kts
29-Jul-18 17:48 44.163844 -114.931625 242 22057ft 420kts
29-Jul-18 17:49 44.101621 -115.062573 241 19670ft 410kts
29-Jul-18 17:50 44.039713 -115.192305 240 17384ft 403kts
29-Jul-18 17:51 43.978080 -115.320940 240 17115ft 403kts
29-Jul-18 17:52 43.916111 -115.449613 240 16998ft 400kts
29-Jul-18 17:53 43.856536 -115.572592 240 15064ft 360kts
29-Jul-18 17:54 43.807135 -115.674224 239 13417ft 308kts
29-Jul-18 17:55 43.757239 -115.767547 214 10822ft 303kts
29-Jul-18 17:56 43.686489 -115.808447 204 9853ft 254kts
29-Jul-18 17:57 43.627254 -115.840126 204 9072ft 212kts
29-Jul-18 17:58 43.575608 -115.882098 219 9045ft 217kts
29-Jul-18 17:59 43.535088 -115.930816 238 8101ft 168kts
29-Jul-18 18:00 43.517719 -115.985890 265 6424ft 151kts
29-Jul-18 18:01 43.517804 -116.042414 280 4975ft 147kts
29-Jul-18 18:02 43.524851 -116.098001 287 4852ft 147kts
29-Jul-18 18:03 43.539361 -116.148311 299 3871ft 146kts
29-Jul-18 18:04 43.553957 -116.189407 297 3126ft 140kts
29-Jul-18 18:05 43.565789 -116.223479 310 2850ft 21kts

Navigation Log

Ident Type
Flight plan parsing failed, navigation log unavailable